CCA8665 ZBAD-ZYCC
Flight info
| Callsign | CCA8665 |
|---|---|
| Flight time | N/A |
| Altitude | 37100 |
| Route | DOTRA6K DOTRA B334 TGO G341 BUTET BUTET4A |
| Aircraft | B77W/H-SDE1E2E3FGHIJ2J3J4J5M1RWXY/LB1D1 |
Departure
| Time | N/A |
|---|---|
| Airport | Beijing Daxing International Airport (ZBAD) |
Arrival
| Time | 2026-04-26 09:59 |
|---|---|
| Airport | Changchun Longjia International Airport (ZYCC) |
| Time | Latitude | Longitude | Altitude | Speed | Heading |
|---|---|---|---|---|---|
| 2026-04-26 09:45 | 44.00775 | 125.91631 | 5940 ft | 271 kts | 47° |
| 2026-04-26 09:45 | 44.01975 | 125.93575 | 5887 ft | 259 kts | 47° |
| 2026-04-26 09:46 | 44.03110 | 125.95417 | 5874 ft | 246 kts | 47° |
| 2026-04-26 09:46 | 44.04202 | 125.97189 | 5877 ft | 233 kts | 47° |
| 2026-04-26 09:46 | 44.05257 | 125.98898 | 5753 ft | 232 kts | 46° |
| 2026-04-26 09:46 | 44.06301 | 126.00591 | 5467 ft | 233 kts | 46° |
| 2026-04-26 09:47 | 44.07356 | 126.02305 | 5174 ft | 234 kts | 46° |
| 2026-04-26 09:47 | 44.08408 | 126.04014 | 4941 ft | 232 kts | 46° |
| 2026-04-26 09:47 | 44.09452 | 126.05714 | 4792 ft | 226 kts | 46° |
| 2026-04-26 09:47 | 44.10458 | 126.07352 | 4666 ft | 222 kts | 46° |
| 2026-04-26 09:48 | 44.11458 | 126.08979 | 4545 ft | 221 kts | 46° |
| 2026-04-26 09:48 | 44.12458 | 126.10609 | 4436 ft | 220 kts | 46° |
| 2026-04-26 09:48 | 44.13457 | 126.12237 | 4306 ft | 220 kts | 45° |
| 2026-04-26 09:48 | 44.14634 | 126.13512 | 4171 ft | 213 kts | 20° |
| 2026-04-26 09:49 | 44.16019 | 126.13871 | 4031 ft | 199 kts | 354° |
| 2026-04-26 09:49 | 44.17315 | 126.13360 | 3893 ft | 190 kts | 330° |
| 2026-04-26 09:49 | 44.18389 | 126.12296 | 3771 ft | 188 kts | 323° |
| 2026-04-26 09:49 | 44.19395 | 126.11175 | 3651 ft | 187 kts | 321° |
| 2026-04-26 09:50 | 44.20394 | 126.10002 | 3527 ft | 186 kts | 320° |
| 2026-04-26 09:50 | 44.21325 | 126.08797 | 3404 ft | 179 kts | 309° |
| 2026-04-26 09:50 | 44.21871 | 126.07260 | 3269 ft | 178 kts | 287° |
| 2026-04-26 09:50 | 44.21919 | 126.05557 | 3139 ft | 182 kts | 264° |
| 2026-04-26 09:51 | 44.21443 | 126.03906 | 3008 ft | 189 kts | 239° |
| 2026-04-26 09:51 | 44.20615 | 126.02479 | 2899 ft | 188 kts | 233° |
| 2026-04-26 09:51 | 44.19760 | 126.01088 | 2885 ft | 190 kts | 233° |
| 2026-04-26 09:51 | 44.18904 | 125.99699 | 2879 ft | 189 kts | 233° |
| 2026-04-26 09:52 | 44.18054 | 125.98318 | 2878 ft | 187 kts | 233° |
| 2026-04-26 09:52 | 44.16346 | 125.95540 | 2876 ft | 189 kts | 233° |
| 2026-04-26 09:52 | 44.15493 | 125.94154 | 2882 ft | 188 kts | 233° |
| 2026-04-26 09:53 | 44.14647 | 125.92783 | 2878 ft | 178 kts | 233° |
| 2026-04-26 09:53 | 44.13883 | 125.91524 | 2873 ft | 162 kts | 234° |
| 2026-04-26 09:53 | 44.13189 | 125.90379 | 2884 ft | 150 kts | 234° |
| 2026-04-26 09:53 | 44.12508 | 125.89269 | 2883 ft | 151 kts | 234° |
| 2026-04-26 09:54 | 44.11823 | 125.88161 | 2878 ft | 150 kts | 234° |
| 2026-04-26 09:54 | 44.11137 | 125.87055 | 2870 ft | 150 kts | 233° |
| 2026-04-26 09:54 | 44.10458 | 125.85959 | 2868 ft | 151 kts | 233° |
| 2026-04-26 09:54 | 44.09766 | 125.84841 | 2876 ft | 152 kts | 233° |
| 2026-04-26 09:55 | 44.09079 | 125.83731 | 2874 ft | 152 kts | 233° |
| 2026-04-26 09:55 | 44.08388 | 125.82616 | 2873 ft | 151 kts | 233° |
| 2026-04-26 09:55 | 44.07703 | 125.81511 | 2839 ft | 151 kts | 234° |
| 2026-04-26 09:55 | 44.07027 | 125.80419 | 2629 ft | 148 kts | 233° |
| 2026-04-26 09:56 | 44.06343 | 125.79315 | 2450 ft | 149 kts | 233° |
| 2026-04-26 09:56 | 44.05666 | 125.78223 | 2253 ft | 150 kts | 233° |
| 2026-04-26 09:56 | 44.04987 | 125.77130 | 2053 ft | 149 kts | 233° |
| 2026-04-26 09:56 | 44.04313 | 125.76044 | 1857 ft | 147 kts | 232° |
| 2026-04-26 09:57 | 44.03657 | 125.74988 | 1659 ft | 144 kts | 231° |
| 2026-04-26 09:57 | 44.03004 | 125.73937 | 1477 ft | 142 kts | 231° |
| 2026-04-26 09:57 | 44.02361 | 125.72901 | 1279 ft | 140 kts | 230° |
| 2026-04-26 09:57 | 44.01717 | 125.71867 | 1091 ft | 143 kts | 232° |
| 2026-04-26 09:58 | 44.01063 | 125.70815 | 901 ft | 142 kts | 231° |
| 2026-04-26 09:58 | 44.00416 | 125.69783 | 733 ft | 138 kts | 230° |
| 2026-04-26 09:58 | 43.99863 | 125.68889 | 721 ft | 104 kts | 229° |
| 2026-04-26 09:58 | 43.99485 | 125.68285 | 720 ft | 59 kts | 230° |
| 2026-04-26 09:59 | 43.99255 | 125.68018 | 721 ft | 30 kts | 205° |